RYR112 LHBP-EDDN
Flight info
| Callsign | RYR112 |
|---|---|
| Flight time | N/A |
| Altitude | 30000 |
| Route | GILEP DCT ZOLKU DCT ARSIN DCT SUBEN T161 AKINI/N0416F240 Z109 UPALA UPALA1V |
| Aircraft | B738/M-SDE2E3FGHIRWXY/LB1 |
Departure
| Time | N/A |
|---|---|
| Airport | Budapest Liszt Ferenc International Airport (LHBP) |
Arrival
| Time | 2026-04-27 18:49 |
|---|---|
| Airport | Nuremberg Airport (EDDN) |
| Time | Latitude | Longitude | Altitude | Speed | Heading |
|---|---|---|---|---|---|
| 2026-04-27 18:13 | 48.09724 | 14.73198 | 30157 ft | 396 kts | 291° |
| 2026-04-27 18:14 | 48.12435 | 14.62363 | 30150 ft | 396 kts | 291° |
| 2026-04-27 18:14 | 48.14342 | 14.54708 | 30152 ft | 398 kts | 291° |
| 2026-04-27 18:15 | 48.16265 | 14.46959 | 30157 ft | 398 kts | 291° |
| 2026-04-27 18:15 | 48.18185 | 14.39200 | 30154 ft | 395 kts | 291° |
| 2026-04-27 18:16 | 48.20091 | 14.31472 | 30148 ft | 396 kts | 291° |
| 2026-04-27 18:16 | 48.21999 | 14.23767 | 30297 ft | 393 kts | 291° |
| 2026-04-27 18:17 | 48.23996 | 14.16085 | 30263 ft | 399 kts | 290° |
| 2026-04-27 18:17 | 48.25740 | 14.08322 | 30163 ft | 392 kts | 290° |
| 2026-04-27 18:18 | 48.27614 | 14.00592 | 30155 ft | 395 kts | 291° |
| 2026-04-27 18:18 | 48.29524 | 13.92884 | 30148 ft | 394 kts | 291° |
| 2026-04-27 18:19 | 48.31379 | 13.85135 | 30140 ft | 394 kts | 290° |
| 2026-04-27 18:19 | 48.33236 | 13.77397 | 30148 ft | 394 kts | 290° |
| 2026-04-27 18:20 | 48.35099 | 13.69656 | 30148 ft | 394 kts | 290° |
| 2026-04-27 18:20 | 48.36952 | 13.61895 | 30152 ft | 394 kts | 290° |
| 2026-04-27 18:21 | 48.38797 | 13.54141 | 30154 ft | 394 kts | 290° |
| 2026-04-27 18:21 | 48.40626 | 13.46434 | 30152 ft | 394 kts | 290° |
| 2026-04-27 18:22 | 48.42457 | 13.38681 | 30148 ft | 393 kts | 290° |
| 2026-04-27 18:22 | 48.44308 | 13.30924 | 30147 ft | 393 kts | 291° |
| 2026-04-27 18:23 | 48.46368 | 13.23289 | 30151 ft | 393 kts | 293° |
| 2026-04-27 18:23 | 48.48419 | 13.15662 | 30161 ft | 393 kts | 292° |
| 2026-04-27 18:24 | 48.50405 | 13.07989 | 30142 ft | 393 kts | 292° |
| 2026-04-27 18:24 | 48.51404 | 13.04158 | 29834 ft | 389 kts | 292° |
| 2026-04-27 18:24 | 48.52386 | 13.00413 | 29561 ft | 380 kts | 292° |
| 2026-04-27 18:25 | 48.53338 | 12.96784 | 29290 ft | 373 kts | 292° |
| 2026-04-27 18:25 | 48.54280 | 12.93182 | 29006 ft | 366 kts | 292° |
| 2026-04-27 18:25 | 48.55206 | 12.89630 | 28731 ft | 362 kts | 292° |
| 2026-04-27 18:25 | 48.56127 | 12.86086 | 28466 ft | 366 kts | 292° |
| 2026-04-27 18:26 | 48.57061 | 12.82491 | 28194 ft | 369 kts | 291° |
| 2026-04-27 18:26 | 48.57997 | 12.78882 | 27926 ft | 369 kts | 291° |
| 2026-04-27 18:26 | 48.58932 | 12.75272 | 27670 ft | 370 kts | 291° |
| 2026-04-27 18:26 | 48.59871 | 12.71640 | 27417 ft | 371 kts | 291° |
| 2026-04-27 18:27 | 48.60809 | 12.68008 | 27186 ft | 371 kts | 291° |
| 2026-04-27 18:27 | 48.61745 | 12.64375 | 26927 ft | 371 kts | 291° |
| 2026-04-27 18:27 | 48.62684 | 12.60727 | 26675 ft | 373 kts | 291° |
| 2026-04-27 18:27 | 48.63623 | 12.57073 | 26460 ft | 375 kts | 291° |
| 2026-04-27 18:28 | 48.64577 | 12.53355 | 26460 ft | 382 kts | 291° |
| 2026-04-27 18:28 | 48.65530 | 12.49632 | 26307 ft | 376 kts | 291° |
| 2026-04-27 18:28 | 48.66470 | 12.45955 | 25793 ft | 374 kts | 291° |
| 2026-04-27 18:28 | 48.67398 | 12.42317 | 25200 ft | 376 kts | 291° |
| 2026-04-27 18:29 | 48.68342 | 12.38615 | 24591 ft | 379 kts | 291° |
| 2026-04-27 18:29 | 48.69290 | 12.34887 | 23966 ft | 381 kts | 291° |
| 2026-04-27 18:29 | 48.70245 | 12.31131 | 23464 ft | 380 kts | 291° |
| 2026-04-27 18:29 | 48.71176 | 12.27458 | 23337 ft | 368 kts | 291° |
| 2026-04-27 18:30 | 48.72079 | 12.23888 | 23089 ft | 359 kts | 291° |
| 2026-04-27 18:30 | 48.72967 | 12.20371 | 22678 ft | 356 kts | 291° |
| 2026-04-27 18:30 | 48.73849 | 12.16872 | 22227 ft | 354 kts | 291° |
| 2026-04-27 18:30 | 48.74799 | 12.13452 | 21775 ft | 353 kts | 297° |
| 2026-04-27 18:31 | 48.76090 | 12.10305 | 21334 ft | 352 kts | 306° |
| 2026-04-27 18:31 | 48.77597 | 12.07396 | 20882 ft | 351 kts | 307° |
| 2026-04-27 18:31 | 48.79109 | 12.04498 | 20460 ft | 349 kts | 307° |
| 2026-04-27 18:31 | 48.80608 | 12.01630 | 20072 ft | 346 kts | 307° |
| 2026-04-27 18:32 | 48.82098 | 11.98773 | 19679 ft | 344 kts | 307° |
| 2026-04-27 18:32 | 48.83579 | 11.95928 | 19262 ft | 342 kts | 307° |
| 2026-04-27 18:32 | 48.85048 | 11.93100 | 18854 ft | 341 kts | 307° |
| 2026-04-27 18:32 | 48.86493 | 11.90318 | 18463 ft | 339 kts | 307° |
| 2026-04-27 18:33 | 48.87950 | 11.87510 | 17980 ft | 338 kts | 307° |
| 2026-04-27 18:33 | 48.89399 | 11.84714 | 17488 ft | 337 kts | 307° |
| 2026-04-27 18:33 | 48.90847 | 11.81918 | 17017 ft | 336 kts | 307° |
| 2026-04-27 18:33 | 48.92285 | 11.79140 | 16558 ft | 334 kts | 307° |
| 2026-04-27 18:34 | 48.93718 | 11.76367 | 16107 ft | 333 kts | 307° |
| 2026-04-27 18:34 | 48.95143 | 11.73623 | 15781 ft | 328 kts | 307° |
| 2026-04-27 18:34 | 48.96553 | 11.70940 | 15461 ft | 323 kts | 308° |
| 2026-04-27 18:34 | 48.97959 | 11.68299 | 15065 ft | 320 kts | 308° |
| 2026-04-27 18:35 | 48.99371 | 11.65677 | 14537 ft | 322 kts | 309° |
| 2026-04-27 18:35 | 49.00807 | 11.63057 | 14071 ft | 322 kts | 308° |
| 2026-04-27 18:35 | 49.02189 | 11.60375 | 13560 ft | 321 kts | 306° |
| 2026-04-27 18:35 | 49.03506 | 11.57633 | 13057 ft | 320 kts | 305° |
| 2026-04-27 18:36 | 49.04799 | 11.54877 | 12594 ft | 318 kts | 305° |
| 2026-04-27 18:36 | 49.06082 | 11.52195 | 12111 ft | 317 kts | 306° |
| 2026-04-27 18:36 | 49.07437 | 11.49548 | 11568 ft | 317 kts | 308° |
| 2026-04-27 18:36 | 49.08820 | 11.46925 | 11059 ft | 317 kts | 308° |
| 2026-04-27 18:37 | 49.10190 | 11.44302 | 10590 ft | 315 kts | 308° |
| 2026-04-27 18:37 | 49.11534 | 11.41678 | 10112 ft | 313 kts | 307° |
| 2026-04-27 18:37 | 49.12873 | 11.39059 | 9595 ft | 312 kts | 310° |
| 2026-04-27 18:37 | 49.14565 | 11.37041 | 9128 ft | 306 kts | 334° |
| 2026-04-27 18:38 | 49.16572 | 11.36285 | 8800 ft | 292 kts | 359° |
| 2026-04-27 18:38 | 49.18513 | 11.36881 | 8479 ft | 282 kts | 23° |
| 2026-04-27 18:38 | 49.20071 | 11.38577 | 8042 ft | 281 kts | 43° |
| 2026-04-27 18:38 | 49.21466 | 11.40666 | 7661 ft | 280 kts | 44° |
| 2026-04-27 18:39 | 49.22828 | 11.42778 | 7331 ft | 278 kts | 44° |
| 2026-04-27 18:39 | 49.24185 | 11.44877 | 7009 ft | 276 kts | 44° |
| 2026-04-27 18:39 | 49.25538 | 11.46942 | 6687 ft | 274 kts | 44° |
| 2026-04-27 18:39 | 49.26894 | 11.48991 | 6399 ft | 270 kts | 44° |
| 2026-04-27 18:40 | 49.28197 | 11.50962 | 6253 ft | 256 kts | 44° |
| 2026-04-27 18:40 | 49.29428 | 11.52830 | 6109 ft | 243 kts | 45° |
| 2026-04-27 18:40 | 49.30597 | 11.54608 | 6036 ft | 238 kts | 45° |
| 2026-04-27 18:40 | 49.31767 | 11.56390 | 6025 ft | 237 kts | 45° |
| 2026-04-27 18:41 | 49.32935 | 11.58168 | 6020 ft | 237 kts | 45° |
| 2026-04-27 18:41 | 49.34203 | 11.59776 | 6023 ft | 237 kts | 31° |
| 2026-04-27 18:41 | 49.35721 | 11.60756 | 6021 ft | 238 kts | 13° |
| 2026-04-27 18:41 | 49.37356 | 11.61195 | 6024 ft | 239 kts | 9° |
| 2026-04-27 18:42 | 49.38994 | 11.61588 | 6021 ft | 238 kts | 9° |
| 2026-04-27 18:42 | 49.40080 | 11.61847 | 6023 ft | 238 kts | 9° |
| 2026-04-27 18:42 | 49.42270 | 11.61884 | 6034 ft | 238 kts | 339° |
| 2026-04-27 18:42 | 49.43532 | 11.60329 | 5972 ft | 236 kts | 305° |
| 2026-04-27 18:43 | 49.44350 | 11.58104 | 5894 ft | 242 kts | 296° |
| 2026-04-27 18:43 | 49.44995 | 11.55695 | 5899 ft | 245 kts | 286° |
| 2026-04-27 18:43 | 49.45352 | 11.53122 | 5887 ft | 248 kts | 279° |
| 2026-04-27 18:43 | 49.45610 | 11.50515 | 5866 ft | 251 kts | 278° |
| 2026-04-27 18:44 | 49.45872 | 11.47849 | 5848 ft | 253 kts | 279° |
| 2026-04-27 18:44 | 49.46143 | 11.45163 | 5565 ft | 255 kts | 279° |
| 2026-04-27 18:44 | 49.46417 | 11.42469 | 5226 ft | 255 kts | 279° |
| 2026-04-27 18:44 | 49.46689 | 11.39773 | 4884 ft | 252 kts | 279° |
| 2026-04-27 18:45 | 49.46952 | 11.37167 | 4556 ft | 241 kts | 279° |
| 2026-04-27 18:45 | 49.47202 | 11.34679 | 4242 ft | 230 kts | 279° |
| 2026-04-27 18:45 | 49.47443 | 11.32274 | 3940 ft | 225 kts | 279° |
| 2026-04-27 18:45 | 49.47680 | 11.29916 | 3647 ft | 222 kts | 279° |
| 2026-04-27 18:46 | 49.47909 | 11.27618 | 3357 ft | 213 kts | 279° |
| 2026-04-27 18:46 | 49.48126 | 11.25443 | 3087 ft | 202 kts | 280° |
| 2026-04-27 18:46 | 49.48331 | 11.23377 | 2824 ft | 187 kts | 281° |
| 2026-04-27 18:46 | 49.48521 | 11.21464 | 2589 ft | 179 kts | 281° |
| 2026-04-27 18:47 | 49.48703 | 11.19627 | 2360 ft | 169 kts | 281° |
| 2026-04-27 18:47 | 49.48868 | 11.17841 | 2121 ft | 169 kts | 279° |
| 2026-04-27 18:47 | 49.49016 | 11.16073 | 1909 ft | 166 kts | 281° |
| 2026-04-27 18:47 | 49.49199 | 11.14349 | 1675 ft | 159 kts | 281° |
| 2026-04-27 18:48 | 49.49368 | 11.12684 | 1474 ft | 157 kts | 279° |
| 2026-04-27 18:48 | 49.49542 | 11.11040 | 1281 ft | 155 kts | 280° |
| 2026-04-27 18:48 | 49.49703 | 11.09428 | 1090 ft | 150 kts | 280° |
| 2026-04-27 18:48 | 49.49857 | 11.07944 | 1029 ft | 119 kts | 278° |
| 2026-04-27 18:49 | 49.49949 | 11.06998 | 1023 ft | 63 kts | 278° |
| 2026-04-27 18:49 | 49.49985 | 11.06633 | 1023 ft | 15 kts | 279° |
| 2026-04-27 18:49 | 49.49980 | 11.06501 | 1023 ft | 10 kts | 236° |
| 2026-04-27 18:49 | 49.49925 | 11.06472 | 1022 ft | 8 kts | 168° |
| 2026-04-27 18:50 | 49.49888 | 11.06492 | 1021 ft | 5 kts | 161° |
| 2026-04-27 18:50 | 49.49848 | 11.06513 | 1020 ft | 6 kts | 161° |
| 2026-04-27 18:50 | 49.49838 | 11.06518 | 1020 ft | 2 kts | 160° |
| 2026-04-27 18:50 | 49.49814 | 11.06536 | 1020 ft | 6 kts | 145° |
| 2026-04-27 18:51 | 49.49797 | 11.06599 | 1019 ft | 7 kts | 99° |
| 2026-04-27 18:51 | 49.49788 | 11.06689 | 1019 ft | 10 kts | 98° |
| 2026-04-27 18:51 | 49.49776 | 11.06803 | 1019 ft | 12 kts | 98° |
| 2026-04-27 18:51 | 49.49765 | 11.06919 | 1019 ft | 9 kts | 98° |
| 2026-04-27 18:52 | 49.49755 | 11.07017 | 1020 ft | 10 kts | 98° |
| 2026-04-27 18:52 | 49.49745 | 11.07122 | 1021 ft | 10 kts | 98° |
| 2026-04-27 18:52 | 49.49733 | 11.07208 | 1021 ft | 6 kts | 121° |
| 2026-04-27 18:53 | 49.49656 | 11.07225 | 1024 ft | 5 kts | 181° |
| 2026-04-27 18:53 | 49.49639 | 11.07251 | 1023 ft | 4 kts | 111° |
| 2026-04-27 18:53 | 49.49632 | 11.07305 | 1025 ft | 8 kts | 99° |
| 2026-04-27 18:53 | 49.49622 | 11.07404 | 1025 ft | 11 kts | 98° |
| 2026-04-27 18:54 | 49.49615 | 11.07452 | 1021 ft | 3 kts | 115° |
| 2026-04-27 18:54 | 49.49601 | 11.07463 | 1025 ft | 2 kts | 164° |
| 2026-04-27 18:54 | 49.49578 | 11.07462 | 1025 ft | 4 kts | 188° |
| 2026-04-27 18:54 | 49.49561 | 11.07458 | 1025 ft | 0 kts | 189° |